createdAt,value
2019-03-23T00:00:12.188Z,100509.69
2019-03-23T00:02:38.343Z,100512.09
2019-03-23T00:05:06.648Z,100508.98
2019-03-23T00:07:32.808Z,100505.39
2019-03-23T00:09:58.976Z,100499.76
2019-03-23T00:12:25.151Z,100492.31
2019-03-23T00:14:51.407Z,100486.06
2019-03-23T00:17:17.579Z,100482.59
2019-03-23T00:19:43.831Z,100471.72
2019-03-23T00:22:10.093Z,100472.94
2019-03-23T00:24:36.262Z,100460.27
2019-03-23T00:27:02.450Z,100455.32
2019-03-23T00:29:28.615Z,100451.91
2019-03-23T00:31:54.780Z,100439.44
2019-03-23T00:34:21.082Z,100436.47
2019-03-23T00:36:47.249Z,100437.64
2019-03-23T00:39:13.407Z,100432.08
2019-03-23T00:41:39.703Z,100429.61
2019-03-23T00:44:07.488Z,100431.83
2019-03-23T00:46:33.838Z,100437.76
2019-03-23T00:49:00.032Z,100436.95
2019-03-23T00:51:26.202Z,100438.93
2019-03-23T00:53:52.367Z,100435.21
2019-03-23T00:56:18.564Z,100438.55
2019-03-23T00:58:44.837Z,100434.93
2019-03-23T01:01:11.289Z,100434.75
2019-03-23T01:03:37.483Z,100431.29
2019-03-23T01:06:03.644Z,100424.72
2019-03-23T01:08:29.816Z,100424.93
2019-03-23T01:10:56.104Z,100428.58
2019-03-23T01:13:22.262Z,100426.91
2019-03-23T01:15:48.415Z,100427.66
2019-03-23T01:18:14.606Z,100423.79
2019-03-23T01:20:49.361Z,100421.14
2019-03-23T01:23:09.802Z,100424.22
2019-03-23T01:25:36.002Z,100431.64
2019-03-23T01:28:02.258Z,100425.54
2019-03-23T01:30:28.461Z,100428.80
2019-03-23T01:32:54.631Z,100421.77
2019-03-23T01:35:20.891Z,100415.80
2019-03-23T01:37:47.099Z,100420.06
2019-03-23T01:40:13.296Z,100419.99
2019-03-23T01:42:39.459Z,100415.49
2019-03-23T01:45:08.724Z,100412.63
2019-03-23T01:47:34.924Z,100413.44
2019-03-23T01:50:01.079Z,100405.07
2019-03-23T01:52:27.238Z,100409.21
2019-03-23T01:54:53.441Z,100404.97
2019-03-23T01:57:19.602Z,100399.92
2019-03-23T01:59:45.760Z,100399.62
2019-03-23T02:02:11.956Z,100391.23
2019-03-23T02:04:38.121Z,100388.99
2019-03-23T02:07:13.387Z,100384.91
2019-03-23T02:09:36.564Z,100389.39
2019-03-23T02:12:02.822Z,100387.06
2019-03-23T02:14:28.982Z,100388.81
2019-03-23T02:16:55.173Z,100400.99
2019-03-23T02:19:21.372Z,100395.01
2019-03-23T02:21:47.531Z,100396.04
2019-03-23T02:24:13.732Z,100390.80
2019-03-23T02:26:40.344Z,100394.68
2019-03-23T02:29:06.506Z,100389.13
2019-03-23T02:31:32.712Z,100389.32
2019-03-23T02:33:58.871Z,100397.98
2019-03-23T02:36:25.037Z,100398.38
2019-03-23T02:38:51.330Z,100397.86
2019-03-23T02:41:17.588Z,100399.27
2019-03-23T02:43:43.753Z,100399.83
2019-03-23T02:46:09.959Z,100402.03
2019-03-23T02:48:36.219Z,100404.02
2019-03-23T02:51:02.374Z,100401.42
2019-03-23T02:53:28.661Z,100403.66
2019-03-23T02:55:54.829Z,100404.69
2019-03-23T02:58:20.992Z,100407.65
2019-03-23T03:00:47.191Z,100413.17
2019-03-23T03:03:13.460Z,100414.16
2019-03-23T03:05:39.716Z,100418.11
2019-03-23T03:08:05.906Z,100415.46
2019-03-23T03:10:38.998Z,100415.58
2019-03-23T03:13:05.361Z,100419.36
2019-03-23T03:15:31.649Z,100419.26
2019-03-23T03:17:57.801Z,100415.59
2019-03-23T03:20:23.960Z,100413.09
2019-03-23T03:22:50.316Z,100412.41
2019-03-23T03:25:16.476Z,100413.80
2019-03-23T03:27:42.736Z,100413.02
2019-03-23T03:30:10.155Z,100413.70
2019-03-23T03:32:36.316Z,100416.21
2019-03-23T03:35:03.672Z,100412.89
2019-03-23T03:37:29.866Z,100412.47
2019-03-23T03:39:56.153Z,100422.70
2019-03-23T03:42:22.332Z,100426.56
2019-03-23T03:44:48.506Z,100460.77
2019-03-23T03:47:14.660Z,100468.39
2019-03-23T03:49:40.834Z,100478.44
2019-03-23T03:52:07.006Z,100480.98
2019-03-23T03:54:33.166Z,100483.67
2019-03-23T03:56:59.426Z,100496.91
2019-03-23T03:59:25.729Z,100493.97
2019-03-23T04:01:51.894Z,100496.59
2019-03-23T04:04:18.045Z,100493.70
2019-03-23T04:06:44.338Z,100491.19
2019-03-23T04:09:10.605Z,100485.82
2019-03-23T04:11:36.766Z,100478.44
2019-03-23T04:14:02.947Z,100474.77
2019-03-23T04:16:29.104Z,100474.67
2019-03-23T04:18:55.266Z,100466.19
2019-03-23T04:21:21.460Z,100469.96
2019-03-23T04:23:49.301Z,100478.73
2019-03-23T04:26:15.454Z,100478.17
2019-03-23T04:28:41.646Z,100474.98
2019-03-23T04:31:07.817Z,100470.27
2019-03-23T04:33:34.080Z,100458.64
2019-03-23T04:36:00.273Z,100449.25
2019-03-23T04:38:26.445Z,100431.71
2019-03-23T04:40:52.630Z,100428.02
2019-03-23T04:43:18.811Z,100424.95
2019-03-23T04:45:45.072Z,100418.66
2019-03-23T04:48:11.337Z,100413.31
2019-03-23T04:50:37.529Z,100414.53
2019-03-23T04:53:03.702Z,100411.03
2019-03-23T04:55:29.853Z,100407.66
2019-03-23T04:57:56.151Z,100403.19
2019-03-23T05:00:22.311Z,100398.67
2019-03-23T05:02:48.467Z,100405.44
2019-03-23T05:05:14.666Z,100402.09
2019-03-23T05:07:40.826Z,100442.72
2019-03-23T05:10:08.390Z,100444.25
2019-03-23T05:12:34.576Z,100463.20
2019-03-23T05:15:00.736Z,100459.02
2019-03-23T05:17:26.999Z,100449.12
2019-03-23T05:19:53.203Z,100441.31
2019-03-23T05:22:19.480Z,100439.58
2019-03-23T05:24:45.689Z,100442.32
2019-03-23T05:27:11.895Z,100434.92
2019-03-23T05:29:38.388Z,100431.94
2019-03-23T05:32:04.555Z,100431.92
2019-03-23T05:34:30.769Z,100430.76
2019-03-23T05:36:56.929Z,100423.69
2019-03-23T05:39:23.106Z,100419.77
2019-03-23T05:41:49.312Z,100407.44
2019-03-23T05:44:15.479Z,100397.55
2019-03-23T05:46:41.642Z,100390.55
2019-03-23T05:49:07.832Z,100394.88
2019-03-23T05:51:33.995Z,100395.88
2019-03-23T05:54:00.250Z,100404.53
2019-03-23T05:56:26.458Z,100408.06
2019-03-23T05:58:52.630Z,100403.32
2019-03-23T06:01:18.798Z,100406.37
2019-03-23T06:03:45.015Z,100414.91
2019-03-23T06:06:11.179Z,100425.17
2019-03-23T06:08:37.342Z,100427.64
2019-03-23T06:11:03.658Z,100432.48
2019-03-23T06:13:29.936Z,100438.44
2019-03-23T06:15:56.107Z,100434.13
2019-03-23T06:18:23.210Z,100434.06
2019-03-23T06:20:49.375Z,100426.23
2019-03-23T06:23:15.534Z,100426.17
2019-03-23T06:25:41.776Z,100425.41
2019-03-23T06:28:07.957Z,100422.97
2019-03-23T06:30:34.127Z,100423.17
2019-03-23T06:33:00.429Z,100423.22
2019-03-23T06:35:26.692Z,100423.39
2019-03-23T06:37:52.844Z,100419.16
2019-03-23T06:40:19.057Z,100425.78
2019-03-23T06:42:45.209Z,100438.78
2019-03-23T06:45:12.276Z,100430.95
2019-03-23T06:47:38.588Z,100433.95
2019-03-23T06:50:07.442Z,100434.52
2019-03-23T06:52:33.603Z,100432.79
2019-03-23T06:54:59.803Z,100437.80
2019-03-23T06:57:26.067Z,100444.94
2019-03-23T06:59:52.317Z,100442.41
2019-03-23T07:02:18.536Z,100438.54
2019-03-23T07:04:44.699Z,100437.47
2019-03-23T07:07:10.965Z,100427.42
2019-03-23T07:09:37.164Z,100429.84
2019-03-23T07:12:03.516Z,100428.98
2019-03-23T07:14:29.674Z,100419.28
2019-03-23T07:16:55.874Z,100432.89
2019-03-23T07:19:22.033Z,100432.59
2019-03-23T07:21:48.301Z,100427.59
2019-03-23T07:24:14.604Z,100420.75
2019-03-23T07:26:40.881Z,100416.16
2019-03-23T07:29:07.139Z,100409.19
2019-03-23T07:31:33.337Z,100415.14
2019-03-23T07:33:59.498Z,100406.83
2019-03-23T07:36:25.658Z,100406.86
2019-03-23T07:38:51.846Z,100403.06
2019-03-23T07:41:18.003Z,100402.44
2019-03-23T07:43:44.173Z,100397.30
2019-03-23T07:46:10.373Z,100387.84
2019-03-23T07:48:36.624Z,100391.93
2019-03-23T07:51:03.828Z,100394.28
2019-03-23T07:53:30.023Z,100393.86
2019-03-23T07:55:56.177Z,100394.62
2019-03-23T07:58:22.431Z,100389.83
2019-03-23T08:00:48.622Z,100389.45
2019-03-23T08:03:14.937Z,100377.62
2019-03-23T08:05:42.126Z,100379.71
2019-03-23T08:08:08.343Z,100369.27
2019-03-23T08:10:34.619Z,100369.72
2019-03-23T08:13:00.889Z,100368.78
2019-03-23T08:15:27.083Z,100376.27
2019-03-23T08:17:54.362Z,100376.04
2019-03-23T08:20:20.622Z,100373.85
2019-03-23T08:22:46.810Z,100381.09
2019-03-23T08:25:12.975Z,100368.14
2019-03-23T08:27:41.670Z,100361.24
2019-03-23T08:30:09.726Z,100348.50
2019-03-23T08:32:35.883Z,100345.37
2019-03-23T08:35:06.212Z,100342.92
2019-03-23T08:37:34.390Z,100350.23
2019-03-23T08:40:00.460Z,100340.88
2019-03-23T08:42:26.616Z,100342.89
2019-03-23T08:44:52.804Z,100332.46
2019-03-23T08:47:18.964Z,100323.66
2019-03-23T08:49:45.122Z,100322.27
2019-03-23T08:52:11.318Z,100313.64
2019-03-23T08:54:37.484Z,100302.59
2019-03-23T08:57:03.634Z,100312.25
2019-03-23T08:59:29.828Z,100312.52
2019-03-23T09:01:56.088Z,100308.84
2019-03-23T09:04:22.248Z,100307.16
2019-03-23T09:06:48.540Z,100297.61
2019-03-23T09:09:14.698Z,100290.00
2019-03-23T09:11:40.852Z,100286.75
2019-03-23T09:14:07.056Z,100283.84
2019-03-23T09:16:33.219Z,100279.88
2019-03-23T09:18:59.381Z,100278.89
2019-03-23T09:21:25.570Z,100275.66
2019-03-23T09:23:51.729Z,100275.47
2019-03-23T09:26:17.985Z,100267.47
2019-03-23T09:28:44.171Z,100265.45
2019-03-23T09:31:10.333Z,100275.17
2019-03-23T09:33:36.592Z,100256.92
2019-03-23T09:36:02.780Z,100252.06
2019-03-23T09:38:29.040Z,100250.34
2019-03-23T09:40:55.196Z,100244.25
2019-03-23T09:43:21.389Z,100257.38
2019-03-23T09:45:50.497Z,100245.54
2019-03-23T09:48:16.711Z,100237.04
2019-03-23T09:50:42.907Z,100236.52
2019-03-23T09:53:09.063Z,100236.13
2019-03-23T09:55:35.216Z,100220.97
2019-03-23T09:58:01.502Z,100211.65
2019-03-23T10:00:27.668Z,100210.31
2019-03-23T10:02:53.828Z,100216.06
2019-03-23T10:05:20.031Z,100211.05
2019-03-23T10:07:46.188Z,100206.16
2019-03-23T10:10:21.216Z,100203.03
2019-03-23T10:12:40.680Z,100212.55
2019-03-23T10:15:06.827Z,100207.91
2019-03-23T10:17:32.984Z,100206.37
2019-03-23T10:19:59.175Z,100208.53
2019-03-23T10:22:25.332Z,100195.69
2019-03-23T10:24:51.487Z,100206.31
2019-03-23T10:27:17.673Z,100210.06
2019-03-23T10:29:43.942Z,100195.08
2019-03-23T10:32:10.110Z,100184.31
2019-03-23T10:34:36.589Z,100185.67
2019-03-23T10:37:02.748Z,100176.97
2019-03-23T10:39:29.016Z,100191.12
2019-03-23T10:41:55.199Z,100196.09
2019-03-23T10:44:21.370Z,100196.27
2019-03-23T10:46:47.524Z,100199.30
2019-03-23T10:49:13.834Z,100191.87
2019-03-23T10:51:39.998Z,100191.68
2019-03-23T10:54:06.267Z,100178.72
2019-03-23T10:56:32.561Z,100181.64
2019-03-23T10:58:58.734Z,100179.42
2019-03-23T11:01:24.982Z,100176.27
2019-03-23T11:03:51.170Z,100180.13
2019-03-23T11:06:17.433Z,100172.47
2019-03-23T11:08:43.641Z,100169.84
2019-03-23T11:11:09.827Z,100164.45
2019-03-23T11:13:36.093Z,100160.94
2019-03-23T11:16:02.257Z,100165.78
2019-03-23T11:18:28.443Z,100154.29
2019-03-23T11:20:54.706Z,100155.94
2019-03-23T11:23:20.911Z,100154.52
2019-03-23T11:25:47.208Z,100151.57
2019-03-23T11:28:13.355Z,100152.47
2019-03-23T11:30:39.775Z,100152.42
2019-03-23T11:33:05.971Z,100144.94
2019-03-23T11:35:32.127Z,100141.80
2019-03-23T11:37:58.469Z,100129.52
2019-03-23T11:40:24.878Z,100131.91
2019-03-23T11:42:51.035Z,100129.02
2019-03-23T11:45:17.198Z,100116.80
2019-03-23T11:47:43.394Z,100116.16
2019-03-23T11:50:10.252Z,100111.75
2019-03-23T11:52:36.420Z,100091.36
2019-03-23T11:55:04.837Z,100084.37
2019-03-23T11:57:30.992Z,100088.17
2019-03-23T11:59:57.144Z,100077.28
2019-03-23T12:02:23.335Z,100095.53
2019-03-23T12:04:49.497Z,100088.17
2019-03-23T12:07:15.750Z,100080.22
2019-03-23T12:09:41.943Z,100073.28
2019-03-23T12:12:08.096Z,100069.50
2019-03-23T12:14:34.360Z,100064.69
2019-03-23T12:17:00.566Z,100063.34
2019-03-23T12:19:26.721Z,100065.17
2019-03-23T12:21:52.880Z,100058.33
2019-03-23T12:24:19.167Z,100061.08
2019-03-23T12:26:45.322Z,100070.48
2019-03-23T12:29:11.474Z,100074.05
2019-03-23T12:31:37.717Z,100061.84
2019-03-23T12:34:03.872Z,100061.95
2019-03-23T12:36:30.030Z,100049.66
2019-03-23T12:38:56.222Z,100051.57
2019-03-23T12:41:23.402Z,100053.20
2019-03-23T12:43:49.839Z,100051.98
2019-03-23T12:46:16.088Z,100050.92
2019-03-23T12:48:42.252Z,100050.98
2019-03-23T12:51:08.512Z,100042.53
2019-03-23T12:53:34.705Z,100045.55
2019-03-23T12:56:00.874Z,100044.56
2019-03-23T12:58:27.037Z,100047.30
2019-03-23T13:00:53.227Z,100029.50
2019-03-23T13:03:19.379Z,100030.14
2019-03-23T13:05:45.539Z,100025.47
2019-03-23T13:08:11.837Z,100034.83
2019-03-23T13:10:37.999Z,100026.82
2019-03-23T13:13:04.262Z,100020.09
2019-03-23T13:15:30.464Z,100021.75
2019-03-23T13:17:56.622Z,100024.44
2019-03-23T13:20:22.876Z,100017.13
2019-03-23T13:22:49.173Z,100011.95
2019-03-23T13:25:15.329Z,100012.02
2019-03-23T13:27:42.297Z,99999.98
2019-03-23T13:30:13.588Z,100002.83
2019-03-23T13:32:39.757Z,100003.88
2019-03-23T13:35:05.923Z,100006.10
2019-03-23T13:37:32.116Z,100001.99
2019-03-23T13:39:58.272Z,99999.37
2019-03-23T13:42:24.431Z,100008.02
2019-03-23T13:44:50.639Z,100001.96
2019-03-23T13:47:16.802Z,99993.84
2019-03-23T13:49:43.061Z,99996.00
2019-03-23T13:52:09.250Z,99992.91
2019-03-23T13:54:35.510Z,99988.58
2019-03-23T13:57:01.669Z,99984.30
2019-03-23T13:59:27.873Z,99986.52
2019-03-23T14:01:54.025Z,99981.67
2019-03-23T14:04:20.282Z,99988.11
2019-03-23T14:06:46.528Z,99991.55
2019-03-23T14:09:12.672Z,99994.31
2019-03-23T14:11:38.832Z,99991.77
2019-03-23T14:14:05.027Z,99983.48
2019-03-23T14:16:31.203Z,99978.08
2019-03-23T14:18:57.350Z,99979.19
2019-03-23T14:21:23.540Z,99978.12
2019-03-23T14:23:49.695Z,99983.05
2019-03-23T14:26:15.964Z,99976.95
2019-03-23T14:28:42.159Z,99981.31
2019-03-23T14:31:08.545Z,99978.95
2019-03-23T14:33:34.758Z,99981.53
2019-03-23T14:36:00.951Z,99979.45
2019-03-23T14:38:27.107Z,99978.98
2019-03-23T14:40:53.259Z,99980.14
2019-03-23T14:43:19.449Z,99984.56
2019-03-23T14:45:45.611Z,99985.42
2019-03-23T14:48:11.772Z,99986.75
2019-03-23T14:50:37.974Z,99983.56
2019-03-23T14:53:04.239Z,99982.30
2019-03-23T14:55:30.391Z,99986.02
2019-03-23T14:57:56.580Z,99992.91
2019-03-23T15:00:28.153Z,99991.44
2019-03-23T15:02:54.308Z,99995.21
2019-03-23T15:05:20.497Z,99994.77
2019-03-23T15:07:46.796Z,99991.47
2019-03-23T15:10:13.013Z,99996.41
2019-03-23T15:12:39.205Z,99987.77
2019-03-23T15:15:05.976Z,99982.36
2019-03-23T15:17:32.148Z,99988.48
2019-03-23T15:19:58.441Z,99985.73
2019-03-23T15:22:24.595Z,99984.28
2019-03-23T15:24:50.757Z,99978.98
2019-03-23T15:27:16.949Z,99990.05
2019-03-23T15:29:43.508Z,99979.95
2019-03-23T15:32:09.769Z,99986.54
2019-03-23T15:34:35.968Z,99995.06
2019-03-23T15:37:02.140Z,99992.55
2019-03-23T15:39:28.297Z,99992.20
2019-03-23T15:41:54.482Z,99991.83
2019-03-23T15:44:20.750Z,99985.66
2019-03-23T15:46:46.913Z,99988.96
2019-03-23T15:49:13.104Z,99991.85
2019-03-23T15:51:39.372Z,99986.84
2019-03-23T15:54:05.548Z,99989.02
2019-03-23T15:56:31.733Z,99988.16
2019-03-23T15:58:57.885Z,99992.09
2019-03-23T16:01:24.044Z,99993.17
2019-03-23T16:03:50.239Z,99990.98
2019-03-23T16:06:16.394Z,99996.73
2019-03-23T16:08:42.555Z,99994.55
2019-03-23T16:11:08.751Z,99995.95
2019-03-23T16:13:34.928Z,99995.33
2019-03-23T16:16:01.089Z,99999.77
2019-03-23T16:18:27.385Z,99995.92
2019-03-23T16:20:53.540Z,100006.74
2019-03-23T16:23:19.705Z,100013.37
2019-03-23T16:25:45.894Z,100010.81
2019-03-23T16:28:12.055Z,100013.52
2019-03-23T16:30:38.209Z,100023.25
2019-03-23T16:33:04.400Z,100020.37
2019-03-23T16:35:32.276Z,100021.00
2019-03-23T16:37:58.436Z,100022.86
2019-03-23T16:40:24.637Z,100032.10
2019-03-23T16:42:50.892Z,100032.49
2019-03-23T16:45:17.063Z,100033.11
2019-03-23T16:47:43.258Z,100031.55
2019-03-23T16:50:09.427Z,100038.80
2019-03-23T16:52:37.000Z,100036.76
2019-03-23T16:55:08.475Z,100042.16
2019-03-23T16:57:34.735Z,100040.55
2019-03-23T17:00:00.896Z,100042.89
2019-03-23T17:02:27.084Z,100045.89
2019-03-23T17:04:53.246Z,100046.53
2019-03-23T17:07:19.410Z,100044.91
2019-03-23T17:09:45.611Z,100052.20
2019-03-23T17:12:11.868Z,100050.02
2019-03-23T17:14:38.022Z,100050.08
2019-03-23T17:17:04.244Z,100052.63
2019-03-23T17:19:30.494Z,100054.27
2019-03-23T17:21:56.755Z,100055.88
2019-03-23T17:24:22.959Z,100052.91
2019-03-23T17:26:49.120Z,100063.72
2019-03-23T17:29:15.286Z,100065.20
2019-03-23T17:31:41.801Z,100064.66
2019-03-23T17:34:07.957Z,100069.36
2019-03-23T17:36:34.211Z,100074.92
2019-03-23T17:39:00.517Z,100074.09
2019-03-23T17:41:26.674Z,100084.02
2019-03-23T17:43:52.852Z,100080.22
2019-03-23T17:46:19.045Z,100084.87
2019-03-23T17:48:45.191Z,100094.36
2019-03-23T17:51:11.354Z,100088.25
2019-03-23T17:53:37.650Z,100100.18
2019-03-23T17:56:03.813Z,100096.58
2019-03-23T17:58:29.964Z,100102.58
2019-03-23T18:00:56.252Z,100104.62
2019-03-23T18:03:22.420Z,100097.94
2019-03-23T18:05:48.574Z,100104.74
2019-03-23T18:08:14.884Z,100110.22
2019-03-23T18:10:41.041Z,100112.33
2019-03-23T18:13:16.089Z,100112.95
2019-03-23T18:15:35.386Z,100123.70
2019-03-23T18:18:01.598Z,100122.80
2019-03-23T18:20:27.756Z,100119.08
2019-03-23T18:22:54.051Z,100130.12
2019-03-23T18:25:20.219Z,100134.18
2019-03-23T18:27:46.376Z,100145.41
2019-03-23T18:30:33.005Z,100133.50
2019-03-23T18:32:59.173Z,100145.94
2019-03-23T18:35:25.323Z,100150.45
2019-03-23T18:37:51.560Z,100145.87
2019-03-23T18:40:17.816Z,100153.78
2019-03-23T18:42:43.970Z,100149.38
2019-03-23T18:45:10.160Z,100152.12
2019-03-23T18:47:36.320Z,100156.23
2019-03-23T18:50:04.488Z,100164.00
2019-03-23T18:52:30.673Z,100165.01
2019-03-23T18:54:56.835Z,100168.38
2019-03-23T18:57:22.996Z,100167.91
2019-03-23T18:59:49.185Z,100171.11
2019-03-23T19:02:15.341Z,100161.81
2019-03-23T19:04:41.495Z,100171.08
2019-03-23T19:07:07.679Z,100173.98
2019-03-23T19:09:33.842Z,100179.00
2019-03-23T19:11:59.995Z,100177.83
2019-03-23T19:14:26.293Z,100183.69
2019-03-23T19:16:52.458Z,100186.63
2019-03-23T19:19:18.640Z,100189.02
2019-03-23T19:21:44.841Z,100193.08
2019-03-23T19:24:10.997Z,100196.91
2019-03-23T19:26:37.163Z,100196.52
2019-03-23T19:29:03.351Z,100201.33
2019-03-23T19:31:29.526Z,100202.34
2019-03-23T19:33:55.689Z,100209.73
2019-03-23T19:36:21.879Z,100213.87
2019-03-23T19:38:48.976Z,100205.73
2019-03-23T19:41:15.133Z,100206.14
2019-03-23T19:43:48.625Z,100206.23
2019-03-23T19:46:09.479Z,100198.06
2019-03-23T19:48:35.642Z,100201.35
2019-03-23T19:51:03.738Z,100203.65
2019-03-23T19:53:29.907Z,100196.58
2019-03-23T19:55:56.071Z,100198.67
2019-03-23T19:58:22.257Z,100188.75
2019-03-23T20:00:48.426Z,100186.19
2019-03-23T20:03:14.583Z,100187.52
2019-03-23T20:05:40.772Z,100194.59
2019-03-23T20:08:06.947Z,100194.39
2019-03-23T20:10:33.110Z,100194.28
2019-03-23T20:12:59.288Z,100194.97
2019-03-23T20:15:25.450Z,100193.67
2019-03-23T20:17:51.609Z,100182.94
2019-03-23T20:20:20.028Z,100193.65
2019-03-23T20:22:46.477Z,100195.27
2019-03-23T20:25:12.644Z,100203.25
2019-03-23T20:27:38.839Z,100207.33
2019-03-23T20:30:07.904Z,100210.02
2019-03-23T20:32:34.289Z,100212.39
2019-03-23T20:35:00.485Z,100209.72
2019-03-23T20:37:26.638Z,100217.79
2019-03-23T20:39:52.840Z,100225.47
2019-03-23T20:42:19.033Z,100222.17
2019-03-23T20:44:45.186Z,100225.84
2019-03-23T20:47:11.443Z,100224.74
2019-03-23T20:49:38.131Z,100221.83
2019-03-23T20:52:04.328Z,100221.30
2019-03-23T20:54:30.574Z,100223.72
2019-03-23T20:56:56.759Z,100221.36
2019-03-23T20:59:22.920Z,100223.14
2019-03-23T21:01:49.200Z,100228.27
2019-03-23T21:04:15.367Z,100224.01
2019-03-23T21:06:41.535Z,100214.44
2019-03-23T21:09:07.821Z,100224.72
2019-03-23T21:11:34.736Z,100228.20
2019-03-23T21:14:00.896Z,100226.93
2019-03-23T21:16:27.053Z,100228.13
2019-03-23T21:18:53.240Z,100228.25
2019-03-23T21:21:19.507Z,100238.08
2019-03-23T21:23:45.681Z,100235.74
2019-03-23T21:26:11.972Z,100236.54
2019-03-23T21:28:38.235Z,100238.91
2019-03-23T21:31:04.393Z,100236.20
2019-03-23T21:33:32.162Z,100240.01
2019-03-23T21:35:58.642Z,100242.90
2019-03-23T21:38:24.907Z,100244.25
2019-03-23T21:40:51.104Z,100242.11
2019-03-23T21:43:17.263Z,100242.70
2019-03-23T21:45:43.416Z,100247.77
2019-03-23T21:48:09.717Z,100247.30
2019-03-23T21:50:46.822Z,100246.33
2019-03-23T21:53:04.076Z,100245.29
2019-03-23T21:55:30.249Z,100251.66
2019-03-23T21:57:56.513Z,100255.70
2019-03-23T22:00:28.565Z,100256.48
2019-03-23T22:02:54.752Z,100260.73
2019-03-23T22:05:20.921Z,100260.92
2019-03-23T22:07:47.077Z,100260.98
2019-03-23T22:10:13.688Z,100261.58
2019-03-23T22:12:39.857Z,100260.52
2019-03-23T22:15:07.421Z,100267.08
2019-03-23T22:17:33.608Z,100259.81
2019-03-23T22:19:59.775Z,100263.09
2019-03-23T22:22:25.939Z,100254.28
2019-03-23T22:24:52.140Z,100257.41
2019-03-23T22:27:19.323Z,100260.52
2019-03-23T22:29:45.683Z,100262.05
2019-03-23T22:32:11.887Z,100264.63
2019-03-23T22:34:38.047Z,100267.21
2019-03-23T22:37:04.213Z,100261.45
2019-03-23T22:39:30.409Z,100264.61
2019-03-23T22:41:58.627Z,100262.75
2019-03-23T22:44:24.793Z,100269.39
2019-03-23T22:46:50.991Z,100270.17
2019-03-23T22:49:17.166Z,100256.80
2019-03-23T22:51:43.439Z,100253.44
2019-03-23T22:54:09.655Z,100258.48
2019-03-23T22:56:35.818Z,100250.71
2019-03-23T22:59:02.091Z,100255.79
2019-03-23T23:01:28.283Z,100257.77
2019-03-23T23:03:54.452Z,100256.03
2019-03-23T23:06:20.723Z,100256.50
2019-03-23T23:08:46.928Z,100254.29
2019-03-23T23:11:13.094Z,100251.78
2019-03-23T23:13:39.357Z,100256.45
2019-03-23T23:16:05.564Z,100250.91
2019-03-23T23:18:31.834Z,100253.87
2019-03-23T23:20:57.997Z,100257.34
2019-03-23T23:23:24.293Z,100250.91
2019-03-23T23:25:50.458Z,100248.18
2019-03-23T23:28:17.855Z,100250.58
2019-03-23T23:30:44.458Z,100248.76
2019-03-23T23:33:10.635Z,100250.66
2019-03-23T23:35:36.802Z,100256.07
2019-03-23T23:38:03.005Z,100251.98
2019-03-23T23:40:29.169Z,100256.91
2019-03-23T23:42:55.340Z,100255.68
2019-03-23T23:45:21.542Z,100262.25
2019-03-23T23:47:47.716Z,100259.12
2019-03-23T23:50:13.877Z,100256.45
2019-03-23T23:52:40.068Z,100254.48
2019-03-23T23:55:06.428Z,100255.82
2019-03-23T23:57:32.592Z,100253.62
2019-03-23T23:59:58.794Z,100255.20
